sensor_id;sensor_type;location;lat;lon;timestamp;P1;durP1;ratioP1;P2;durP2;ratioP2
52057;SDS011;38063;53.210;6.504;2022-12-05T00:00:13;30.25;;;16.58;;
52057;SDS011;38063;53.210;6.504;2022-12-05T00:02:39;34.85;;;17.27;;
52057;SDS011;38063;53.210;6.504;2022-12-05T00:05:05;34.70;;;16.58;;
52057;SDS011;38063;53.210;6.504;2022-12-05T00:07:31;32.83;;;16.85;;
52057;SDS011;38063;53.210;6.504;2022-12-05T00:09:57;30.10;;;15.43;;
52057;SDS011;38063;53.210;6.504;2022-12-05T00:12:22;32.67;;;17.17;;
52057;SDS011;38063;53.210;6.504;2022-12-05T00:14:48;31.08;;;15.60;;
52057;SDS011;38063;53.210;6.504;2022-12-05T00:17:14;35.70;;;16.48;;
52057;SDS011;38063;53.210;6.504;2022-12-05T00:19:39;30.20;;;15.23;;
52057;SDS011;38063;53.210;6.504;2022-12-05T00:22:05;32.60;;;16.42;;
52057;SDS011;38063;53.210;6.504;2022-12-05T00:24:30;32.25;;;16.63;;
52057;SDS011;38063;53.210;6.504;2022-12-05T00:26:56;33.78;;;16.90;;
52057;SDS011;38063;53.210;6.504;2022-12-05T00:29:22;37.15;;;17.92;;
52057;SDS011;38063;53.210;6.504;2022-12-05T00:31:47;33.47;;;17.10;;
52057;SDS011;38063;53.210;6.504;2022-12-05T00:34:13;34.72;;;16.58;;
52057;SDS011;38063;53.210;6.504;2022-12-05T00:36:39;32.47;;;16.75;;
52057;SDS011;38063;53.210;6.504;2022-12-05T00:39:09;35.65;;;17.50;;
52057;SDS011;38063;53.210;6.504;2022-12-05T00:41:39;35.85;;;17.50;;
52057;SDS011;38063;53.210;6.504;2022-12-05T00:44:05;38.10;;;18.02;;
52057;SDS011;38063;53.210;6.504;2022-12-05T00:46:32;35.05;;;18.38;;
52057;SDS011;38063;53.210;6.504;2022-12-05T00:48:58;38.70;;;18.58;;
52057;SDS011;38063;53.210;6.504;2022-12-05T00:51:30;38.75;;;19.27;;
52057;SDS011;38063;53.210;6.504;2022-12-05T00:53:58;33.58;;;18.55;;
52057;SDS011;38063;53.210;6.504;2022-12-05T00:56:26;41.70;;;20.33;;
52057;SDS011;38063;53.210;6.504;2022-12-05T00:58:53;43.42;;;18.85;;
52057;SDS011;38063;53.210;6.504;2022-12-05T01:01:39;38.25;;;19.20;;
52057;SDS011;38063;53.210;6.504;2022-12-05T01:04:06;35.72;;;19.33;;
52057;SDS011;38063;53.210;6.504;2022-12-05T01:06:36;39.72;;;20.63;;
52057;SDS011;38063;53.210;6.504;2022-12-05T01:09:02;41.85;;;19.95;;
52057;SDS011;38063;53.210;6.504;2022-12-05T01:11:28;38.95;;;19.02;;
52057;SDS011;38063;53.210;6.504;2022-12-05T01:13:54;38.28;;;19.13;;
52057;SDS011;38063;53.210;6.504;2022-12-05T01:16:26;36.17;;;18.75;;
52057;SDS011;38063;53.210;6.504;2022-12-05T01:18:57;36.72;;;18.40;;
52057;SDS011;38063;53.210;6.504;2022-12-05T01:21:24;36.15;;;17.90;;
52057;SDS011;38063;53.210;6.504;2022-12-05T01:23:50;36.50;;;17.65;;
52057;SDS011;38063;53.210;6.504;2022-12-05T01:26:17;35.50;;;19.02;;
52057;SDS011;38063;53.210;6.504;2022-12-05T01:28:45;29.70;;;15.55;;
52057;SDS011;38063;53.210;6.504;2022-12-05T01:31:19;28.73;;;15.88;;
52057;SDS011;38063;53.210;6.504;2022-12-05T01:33:48;30.80;;;15.32;;
52057;SDS011;38063;53.210;6.504;2022-12-05T01:36:15;25.63;;;15.10;;
52057;SDS011;38063;53.210;6.504;2022-12-05T01:38:41;25.20;;;13.98;;
52057;SDS011;38063;53.210;6.504;2022-12-05T01:41:09;30.73;;;15.70;;
52057;SDS011;38063;53.210;6.504;2022-12-05T01:46:32;25.90;;;13.65;;
52057;SDS011;38063;53.210;6.504;2022-12-05T01:49:04;28.80;;;13.32;;
52057;SDS011;38063;53.210;6.504;2022-12-05T01:51:33;25.92;;;13.93;;
52057;SDS011;38063;53.210;6.504;2022-12-05T01:54:02;25.13;;;13.40;;
52057;SDS011;38063;53.210;6.504;2022-12-05T01:56:28;21.48;;;12.45;;
52057;SDS011;38063;53.210;6.504;2022-12-05T01:58:57;22.90;;;11.85;;
52057;SDS011;38063;53.210;6.504;2022-12-05T02:01:24;24.30;;;12.43;;
52057;SDS011;38063;53.210;6.504;2022-12-05T02:03:50;20.55;;;12.10;;
52057;SDS011;38063;53.210;6.504;2022-12-05T02:06:20;19.70;;;11.25;;
52057;SDS011;38063;53.210;6.504;2022-12-05T02:08:47;24.02;;;11.05;;
52057;SDS011;38063;53.210;6.504;2022-12-05T02:11:13;19.67;;;11.45;;
52057;SDS011;38063;53.210;6.504;2022-12-05T02:16:33;17.85;;;10.82;;
52057;SDS011;38063;53.210;6.504;2022-12-05T02:19:07;18.10;;;10.85;;
52057;SDS011;38063;53.210;6.504;2022-12-05T02:22:01;18.60;;;11.73;;
52057;SDS011;38063;53.210;6.504;2022-12-05T02:30:13;19.75;;;10.27;;
52057;SDS011;38063;53.210;6.504;2022-12-05T02:35:20;18.20;;;9.38;;
52057;SDS011;38063;53.210;6.504;2022-12-05T02:43:37;16.33;;;9.45;;
52057;SDS011;38063;53.210;6.504;2022-12-05T02:46:10;17.38;;;8.45;;
52057;SDS011;38063;53.210;6.504;2022-12-05T02:48:40;16.27;;;10.10;;
52057;SDS011;38063;53.210;6.504;2022-12-05T02:51:08;15.05;;;8.65;;
52057;SDS011;38063;53.210;6.504;2022-12-05T02:53:37;19.60;;;8.93;;
52057;SDS011;38063;53.210;6.504;2022-12-05T02:56:04;15.98;;;9.02;;
52057;SDS011;38063;53.210;6.504;2022-12-05T02:58:33;15.45;;;9.38;;
52057;SDS011;38063;53.210;6.504;2022-12-05T03:01:02;13.20;;;8.48;;
52057;SDS011;38063;53.210;6.504;2022-12-05T03:03:28;13.43;;;8.38;;
52057;SDS011;38063;53.210;6.504;2022-12-05T03:05:58;15.85;;;8.70;;
52057;SDS011;38063;53.210;6.504;2022-12-05T03:11:01;16.67;;;9.32;;
52057;SDS011;38063;53.210;6.504;2022-12-05T03:13:33;14.52;;;8.95;;
52057;SDS011;38063;53.210;6.504;2022-12-05T03:16:11;16.65;;;9.55;;
52057;SDS011;38063;53.210;6.504;2022-12-05T03:18:49;15.55;;;8.88;;
52057;SDS011;38063;53.210;6.504;2022-12-05T03:24:00;14.48;;;8.75;;
52057;SDS011;38063;53.210;6.504;2022-12-05T03:29:30;15.65;;;9.23;;
52057;SDS011;38063;53.210;6.504;2022-12-05T03:40:04;16.63;;;10.10;;
52057;SDS011;38063;53.210;6.504;2022-12-05T03:42:35;15.65;;;9.38;;
52057;SDS011;38063;53.210;6.504;2022-12-05T03:45:10;16.35;;;8.40;;
52057;SDS011;38063;53.210;6.504;2022-12-05T03:50:21;16.85;;;8.55;;
52057;SDS011;38063;53.210;6.504;2022-12-05T03:53:04;16.25;;;9.30;;
52057;SDS011;38063;53.210;6.504;2022-12-05T03:55:34;19.15;;;9.25;;
52057;SDS011;38063;53.210;6.504;2022-12-05T03:58:07;16.83;;;10.18;;
52057;SDS011;38063;53.210;6.504;2022-12-05T04:00:42;19.05;;;9.40;;
52057;SDS011;38063;53.210;6.504;2022-12-05T04:03:15;18.02;;;10.32;;
52057;SDS011;38063;53.210;6.504;2022-12-05T04:05:51;15.93;;;9.75;;
52057;SDS011;38063;53.210;6.504;2022-12-05T04:08:27;20.85;;;10.00;;
52057;SDS011;38063;53.210;6.504;2022-12-05T04:10:57;17.25;;;10.15;;
52057;SDS011;38063;53.210;6.504;2022-12-05T04:13:31;23.65;;;11.48;;
52057;SDS011;38063;53.210;6.504;2022-12-05T04:16:19;20.58;;;10.88;;
52057;SDS011;38063;53.210;6.504;2022-12-05T04:19:16;19.83;;;10.23;;
52057;SDS011;38063;53.210;6.504;2022-12-05T04:21:47;22.25;;;11.07;;
52057;SDS011;38063;53.210;6.504;2022-12-05T04:24:18;18.92;;;10.57;;
52057;SDS011;38063;53.210;6.504;2022-12-05T04:27:18;19.42;;;9.85;;
52057;SDS011;38063;53.210;6.504;2022-12-05T04:30:10;19.55;;;10.38;;
52057;SDS011;38063;53.210;6.504;2022-12-05T04:35:22;17.80;;;9.73;;
52057;SDS011;38063;53.210;6.504;2022-12-05T04:37:52;17.70;;;9.20;;
52057;SDS011;38063;53.210;6.504;2022-12-05T04:40:29;20.95;;;10.70;;
52057;SDS011;38063;53.210;6.504;2022-12-05T04:43:01;19.55;;;10.13;;
52057;SDS011;38063;53.210;6.504;2022-12-05T04:45:28;24.00;;;9.75;;
52057;SDS011;38063;53.210;6.504;2022-12-05T04:47:56;22.95;;;10.13;;
52057;SDS011;38063;53.210;6.504;2022-12-05T04:50:27;19.50;;;10.32;;
52057;SDS011;38063;53.210;6.504;2022-12-05T04:52:55;17.00;;;9.60;;
52057;SDS011;38063;53.210;6.504;2022-12-05T04:55:24;22.95;;;10.57;;
52057;SDS011;38063;53.210;6.504;2022-12-05T04:58:02;20.92;;;10.25;;
52057;SDS011;38063;53.210;6.504;2022-12-05T05:00:33;18.83;;;10.32;;
52057;SDS011;38063;53.210;6.504;2022-12-05T05:06:03;20.30;;;9.75;;
52057;SDS011;38063;53.210;6.504;2022-12-05T05:08:29;18.80;;;9.85;;
52057;SDS011;38063;53.210;6.504;2022-12-05T05:11:14;17.23;;;9.40;;
52057;SDS011;38063;53.210;6.504;2022-12-05T05:13:42;19.33;;;10.55;;
52057;SDS011;38063;53.210;6.504;2022-12-05T05:16:12;18.70;;;9.95;;
52057;SDS011;38063;53.210;6.504;2022-12-05T05:18:42;24.60;;;10.52;;
52057;SDS011;38063;53.210;6.504;2022-12-05T05:21:15;18.48;;;9.63;;
52057;SDS011;38063;53.210;6.504;2022-12-05T05:23:45;18.42;;;9.40;;
52057;SDS011;38063;53.210;6.504;2022-12-05T05:26:11;19.23;;;9.68;;
52057;SDS011;38063;53.210;6.504;2022-12-05T05:28:37;16.60;;;9.82;;
52057;SDS011;38063;53.210;6.504;2022-12-05T05:31:03;19.73;;;9.60;;
52057;SDS011;38063;53.210;6.504;2022-12-05T05:33:30;18.45;;;10.02;;
52057;SDS011;38063;53.210;6.504;2022-12-05T05:35:56;19.23;;;9.82;;
52057;SDS011;38063;53.210;6.504;2022-12-05T05:38:25;18.95;;;9.48;;
52057;SDS011;38063;53.210;6.504;2022-12-05T05:40:51;17.42;;;9.60;;
52057;SDS011;38063;53.210;6.504;2022-12-05T05:43:16;15.68;;;8.90;;
52057;SDS011;38063;53.210;6.504;2022-12-05T05:45:42;20.65;;;10.55;;
52057;SDS011;38063;53.210;6.504;2022-12-05T05:48:07;18.90;;;9.85;;
52057;SDS011;38063;53.210;6.504;2022-12-05T05:50:33;22.23;;;10.18;;
52057;SDS011;38063;53.210;6.504;2022-12-05T05:52:59;18.88;;;9.90;;
52057;SDS011;38063;53.210;6.504;2022-12-05T05:55:24;22.30;;;9.88;;
52057;SDS011;38063;53.210;6.504;2022-12-05T05:57:50;17.95;;;9.85;;
52057;SDS011;38063;53.210;6.504;2022-12-05T06:00:16;17.95;;;9.13;;
52057;SDS011;38063;53.210;6.504;2022-12-05T06:02:42;19.08;;;9.27;;
52057;SDS011;38063;53.210;6.504;2022-12-05T06:05:07;18.85;;;9.52;;
52057;SDS011;38063;53.210;6.504;2022-12-05T06:07:33;24.20;;;10.05;;
52057;SDS011;38063;53.210;6.504;2022-12-05T06:09:59;20.77;;;9.88;;
52057;SDS011;38063;53.210;6.504;2022-12-05T06:12:25;21.88;;;9.15;;
52057;SDS011;38063;53.210;6.504;2022-12-05T06:14:50;17.27;;;8.45;;
52057;SDS011;38063;53.210;6.504;2022-12-05T06:17:16;17.73;;;8.82;;
52057;SDS011;38063;53.210;6.504;2022-12-05T06:19:42;20.77;;;9.73;;
52057;SDS011;38063;53.210;6.504;2022-12-05T06:22:08;17.52;;;9.68;;
52057;SDS011;38063;53.210;6.504;2022-12-05T06:24:33;18.55;;;9.00;;
52057;SDS011;38063;53.210;6.504;2022-12-05T06:26:59;17.20;;;9.57;;
52057;SDS011;38063;53.210;6.504;2022-12-05T06:29:24;20.25;;;9.68;;
52057;SDS011;38063;53.210;6.504;2022-12-05T06:31:50;23.95;;;9.77;;
52057;SDS011;38063;53.210;6.504;2022-12-05T06:34:16;16.30;;;8.20;;
52057;SDS011;38063;53.210;6.504;2022-12-05T06:36:41;18.00;;;9.05;;
52057;SDS011;38063;53.210;6.504;2022-12-05T06:39:07;21.67;;;9.07;;
52057;SDS011;38063;53.210;6.504;2022-12-05T06:41:33;21.08;;;8.95;;
52057;SDS011;38063;53.210;6.504;2022-12-05T06:43:59;19.33;;;9.68;;
52057;SDS011;38063;53.210;6.504;2022-12-05T06:46:25;21.20;;;10.10;;
52057;SDS011;38063;53.210;6.504;2022-12-05T06:48:51;21.95;;;9.82;;
52057;SDS011;38063;53.210;6.504;2022-12-05T06:51:17;26.38;;;10.57;;
52057;SDS011;38063;53.210;6.504;2022-12-05T06:53:43;28.90;;;10.15;;
52057;SDS011;38063;53.210;6.504;2022-12-05T06:56:10;23.25;;;9.90;;
52057;SDS011;38063;53.210;6.504;2022-12-05T06:58:38;20.30;;;9.80;;
52057;SDS011;38063;53.210;6.504;2022-12-05T07:01:08;20.60;;;9.73;;
52057;SDS011;38063;53.210;6.504;2022-12-05T07:03:55;20.55;;;9.98;;
52057;SDS011;38063;53.210;6.504;2022-12-05T07:06:21;22.50;;;9.73;;
52057;SDS011;38063;53.210;6.504;2022-12-05T07:08:46;23.23;;;10.02;;
52057;SDS011;38063;53.210;6.504;2022-12-05T07:11:12;21.73;;;9.55;;
52057;SDS011;38063;53.210;6.504;2022-12-05T07:13:37;23.10;;;9.77;;
52057;SDS011;38063;53.210;6.504;2022-12-05T07:16:06;22.95;;;8.98;;
52057;SDS011;38063;53.210;6.504;2022-12-05T07:18:38;20.60;;;9.30;;
52057;SDS011;38063;53.210;6.504;2022-12-05T07:21:05;23.80;;;9.90;;
52057;SDS011;38063;53.210;6.504;2022-12-05T07:23:32;18.63;;;9.35;;
52057;SDS011;38063;53.210;6.504;2022-12-05T07:25:58;26.25;;;10.50;;
52057;SDS011;38063;53.210;6.504;2022-12-05T07:28:27;21.05;;;9.32;;
52057;SDS011;38063;53.210;6.504;2022-12-05T07:31:04;25.42;;;8.88;;
52057;SDS011;38063;53.210;6.504;2022-12-05T07:33:31;21.52;;;9.07;;
52057;SDS011;38063;53.210;6.504;2022-12-05T07:36:07;17.85;;;8.07;;
52057;SDS011;38063;53.210;6.504;2022-12-05T07:38:35;19.92;;;9.43;;
52057;SDS011;38063;53.210;6.504;2022-12-05T07:41:09;24.25;;;9.02;;
52057;SDS011;38063;53.210;6.504;2022-12-05T07:43:41;21.08;;;8.95;;
52057;SDS011;38063;53.210;6.504;2022-12-05T07:46:06;16.08;;;8.25;;
52057;SDS011;38063;53.210;6.504;2022-12-05T07:48:33;18.45;;;8.95;;
52057;SDS011;38063;53.210;6.504;2022-12-05T07:51:01;20.48;;;9.18;;
52057;SDS011;38063;53.210;6.504;2022-12-05T07:53:29;18.17;;;8.48;;
52057;SDS011;38063;53.210;6.504;2022-12-05T07:55:59;18.50;;;8.73;;
52057;SDS011;38063;53.210;6.504;2022-12-05T07:58:29;17.83;;;8.88;;
52057;SDS011;38063;53.210;6.504;2022-12-05T08:00:55;17.58;;;8.43;;
52057;SDS011;38063;53.210;6.504;2022-12-05T08:03:22;18.45;;;8.45;;
52057;SDS011;38063;53.210;6.504;2022-12-05T08:05:47;15.30;;;7.95;;
52057;SDS011;38063;53.210;6.504;2022-12-05T08:08:13;15.60;;;7.93;;
52057;SDS011;38063;53.210;6.504;2022-12-05T08:10:38;20.20;;;8.35;;
52057;SDS011;38063;53.210;6.504;2022-12-05T08:13:04;19.98;;;8.10;;
52057;SDS011;38063;53.210;6.504;2022-12-05T08:15:33;23.20;;;9.05;;
52057;SDS011;38063;53.210;6.504;2022-12-05T08:18:00;17.15;;;7.50;;
52057;SDS011;38063;53.210;6.504;2022-12-05T08:20:26;19.65;;;9.07;;
52057;SDS011;38063;53.210;6.504;2022-12-05T08:22:52;17.67;;;8.98;;
52057;SDS011;38063;53.210;6.504;2022-12-05T08:25:18;20.15;;;8.00;;
52057;SDS011;38063;53.210;6.504;2022-12-05T08:27:44;18.27;;;7.97;;
52057;SDS011;38063;53.210;6.504;2022-12-05T08:30:09;19.45;;;8.23;;
52057;SDS011;38063;53.210;6.504;2022-12-05T08:32:35;17.85;;;8.15;;
52057;SDS011;38063;53.210;6.504;2022-12-05T08:35:01;13.98;;;8.25;;
52057;SDS011;38063;53.210;6.504;2022-12-05T08:37:26;13.90;;;8.10;;
52057;SDS011;38063;53.210;6.504;2022-12-05T08:39:52;17.33;;;8.48;;
52057;SDS011;38063;53.210;6.504;2022-12-05T08:42:18;21.42;;;9.02;;
52057;SDS011;38063;53.210;6.504;2022-12-05T08:44:43;17.70;;;8.45;;
52057;SDS011;38063;53.210;6.504;2022-12-05T08:47:09;17.15;;;7.90;;
52057;SDS011;38063;53.210;6.504;2022-12-05T08:49:34;15.68;;;7.97;;
52057;SDS011;38063;53.210;6.504;2022-12-05T08:52:00;19.85;;;8.63;;
52057;SDS011;38063;53.210;6.504;2022-12-05T08:54:26;16.65;;;8.35;;
52057;SDS011;38063;53.210;6.504;2022-12-05T08:56:51;16.17;;;8.60;;
52057;SDS011;38063;53.210;6.504;2022-12-05T08:59:17;18.42;;;8.23;;
52057;SDS011;38063;53.210;6.504;2022-12-05T09:01:43;15.40;;;8.02;;
52057;SDS011;38063;53.210;6.504;2022-12-05T09:04:09;23.63;;;8.75;;
52057;SDS011;38063;53.210;6.504;2022-12-05T09:06:36;16.38;;;8.25;;
52057;SDS011;38063;53.210;6.504;2022-12-05T09:09:04;24.98;;;8.40;;
52057;SDS011;38063;53.210;6.504;2022-12-05T09:11:32;18.88;;;9.52;;
52057;SDS011;38063;53.210;6.504;2022-12-05T09:13:59;17.77;;;7.95;;
52057;SDS011;38063;53.210;6.504;2022-12-05T09:16:30;20.55;;;8.93;;
52057;SDS011;38063;53.210;6.504;2022-12-05T09:18:57;21.90;;;9.15;;
52057;SDS011;38063;53.210;6.504;2022-12-05T09:21:24;18.50;;;9.40;;
52057;SDS011;38063;53.210;6.504;2022-12-05T09:23:53;17.58;;;8.40;;
52057;SDS011;38063;53.210;6.504;2022-12-05T09:26:20;21.00;;;9.77;;
52057;SDS011;38063;53.210;6.504;2022-12-05T09:28:49;19.95;;;9.73;;
52057;SDS011;38063;53.210;6.504;2022-12-05T09:31:16;20.73;;;8.77;;
52057;SDS011;38063;53.210;6.504;2022-12-05T09:33:44;19.58;;;9.68;;
52057;SDS011;38063;53.210;6.504;2022-12-05T09:36:18;26.35;;;9.82;;
52057;SDS011;38063;53.210;6.504;2022-12-05T09:38:48;27.65;;;9.27;;
52057;SDS011;38063;53.210;6.504;2022-12-05T09:43:52;21.83;;;10.00;;
52057;SDS011;38063;53.210;6.504;2022-12-05T09:46:34;18.42;;;9.85;;
52057;SDS011;38063;53.210;6.504;2022-12-05T09:49:04;23.98;;;9.35;;
52057;SDS011;38063;53.210;6.504;2022-12-05T09:51:31;25.13;;;9.80;;
52057;SDS011;38063;53.210;6.504;2022-12-05T09:53:57;21.05;;;9.77;;
52057;SDS011;38063;53.210;6.504;2022-12-05T09:58:53;22.35;;;9.32;;
52057;SDS011;38063;53.210;6.504;2022-12-05T10:15:29;22.17;;;10.07;;
52057;SDS011;38063;53.210;6.504;2022-12-05T10:18:01;25.63;;;10.07;;
52057;SDS011;38063;53.210;6.504;2022-12-05T10:20:28;22.48;;;10.60;;
52057;SDS011;38063;53.210;6.504;2022-12-05T10:23:00;22.30;;;10.93;;
52057;SDS011;38063;53.210;6.504;2022-12-05T10:25:30;22.88;;;10.35;;
52057;SDS011;38063;53.210;6.504;2022-12-05T10:27:59;17.58;;;9.15;;
52057;SDS011;38063;53.210;6.504;2022-12-05T10:30:28;20.63;;;10.57;;
52057;SDS011;38063;53.210;6.504;2022-12-05T10:35:35;23.55;;;10.75;;
52057;SDS011;38063;53.210;6.504;2022-12-05T10:38:02;22.15;;;10.77;;
52057;SDS011;38063;53.210;6.504;2022-12-05T10:40:35;23.02;;;10.80;;
52057;SDS011;38063;53.210;6.504;2022-12-05T10:43:07;20.05;;;10.02;;
52057;SDS011;38063;53.210;6.504;2022-12-05T10:45:44;21.77;;;10.15;;
52057;SDS011;38063;53.210;6.504;2022-12-05T10:48:12;20.50;;;9.48;;
52057;SDS011;38063;53.210;6.504;2022-12-05T10:50:40;18.58;;;9.32;;
52057;SDS011;38063;53.210;6.504;2022-12-05T10:53:07;19.98;;;9.50;;
52057;SDS011;38063;53.210;6.504;2022-12-05T10:55:40;20.58;;;9.15;;
52057;SDS011;38063;53.210;6.504;2022-12-05T11:00:54;20.55;;;10.27;;
52057;SDS011;38063;53.210;6.504;2022-12-05T11:03:33;21.77;;;9.85;;
52057;SDS011;38063;53.210;6.504;2022-12-05T11:09:34;22.73;;;8.52;;
52057;SDS011;38063;53.210;6.504;2022-12-05T11:12:02;23.27;;;8.63;;
52057;SDS011;38063;53.210;6.504;2022-12-05T11:14:33;21.25;;;9.10;;
52057;SDS011;38063;53.210;6.504;2022-12-05T11:17:00;19.58;;;8.48;;
52057;SDS011;38063;53.210;6.504;2022-12-05T11:19:35;18.00;;;8.75;;
52057;SDS011;38063;53.210;6.504;2022-12-05T11:22:02;22.90;;;9.70;;
52057;SDS011;38063;53.210;6.504;2022-12-05T11:24:30;17.63;;;8.48;;
52057;SDS011;38063;53.210;6.504;2022-12-05T11:29:42;14.32;;;8.20;;
52057;SDS011;38063;53.210;6.504;2022-12-05T11:32:21;20.75;;;7.80;;
52057;SDS011;38063;53.210;6.504;2022-12-05T11:35:10;15.57;;;8.25;;
52057;SDS011;38063;53.210;6.504;2022-12-05T11:37:54;19.77;;;8.57;;
52057;SDS011;38063;53.210;6.504;2022-12-05T11:45:39;16.33;;;7.72;;
52057;SDS011;38063;53.210;6.504;2022-12-05T11:48:33;15.20;;;8.00;;
52057;SDS011;38063;53.210;6.504;2022-12-05T11:54:03;13.05;;;7.65;;
52057;SDS011;38063;53.210;6.504;2022-12-05T12:05:01;13.63;;;6.70;;
52057;SDS011;38063;53.210;6.504;2022-12-05T12:07:43;16.95;;;6.25;;
52057;SDS011;38063;53.210;6.504;2022-12-05T12:25:28;14.25;;;6.93;;
52057;SDS011;38063;53.210;6.504;2022-12-05T12:28:30;13.18;;;5.47;;
52057;SDS011;38063;53.210;6.504;2022-12-05T12:36:27;12.98;;;6.88;;
52057;SDS011;38063;53.210;6.504;2022-12-05T12:44:49;11.02;;;5.85;;
52057;SDS011;38063;53.210;6.504;2022-12-05T12:47:47;16.33;;;6.50;;
52057;SDS011;38063;53.210;6.504;2022-12-05T12:50:33;15.45;;;6.22;;
52057;SDS011;38063;53.210;6.504;2022-12-05T12:55:29;20.45;;;6.53;;
52057;SDS011;38063;53.210;6.504;2022-12-05T12:58:31;11.27;;;4.95;;
52057;SDS011;38063;53.210;6.504;2022-12-05T13:03:53;11.75;;;5.57;;
52057;SDS011;38063;53.210;6.504;2022-12-05T13:11:51;14.60;;;5.53;;
52057;SDS011;38063;53.210;6.504;2022-12-05T13:14:19;12.30;;;5.50;;
52057;SDS011;38063;53.210;6.504;2022-12-05T13:16:49;14.23;;;5.63;;
52057;SDS011;38063;53.210;6.504;2022-12-05T13:19:30;12.65;;;4.93;;
52057;SDS011;38063;53.210;6.504;2022-12-05T13:22:10;12.75;;;4.78;;
52057;SDS011;38063;53.210;6.504;2022-12-05T13:24:38;10.65;;;4.93;;
52057;SDS011;38063;53.210;6.504;2022-12-05T13:27:04;17.80;;;6.18;;
52057;SDS011;38063;53.210;6.504;2022-12-05T13:29:33;11.25;;;5.72;;
52057;SDS011;38063;53.210;6.504;2022-12-05T13:32:02;12.90;;;5.07;;
52057;SDS011;38063;53.210;6.504;2022-12-05T13:40:18;12.80;;;5.50;;
52057;SDS011;38063;53.210;6.504;2022-12-05T13:43:09;15.35;;;6.18;;
52057;SDS011;38063;53.210;6.504;2022-12-05T13:45:40;11.30;;;5.20;;
52057;SDS011;38063;53.210;6.504;2022-12-05T13:48:17;9.57;;;4.63;;
52057;SDS011;38063;53.210;6.504;2022-12-05T13:53:25;13.40;;;4.93;;
52057;SDS011;38063;53.210;6.504;2022-12-05T13:56:21;11.73;;;5.22;;
52057;SDS011;38063;53.210;6.504;2022-12-05T13:58:51;12.63;;;5.38;;
52057;SDS011;38063;53.210;6.504;2022-12-05T14:17:30;9.70;;;4.88;;
52057;SDS011;38063;53.210;6.504;2022-12-05T14:22:58;18.58;;;5.75;;
52057;SDS011;38063;53.210;6.504;2022-12-05T14:32:03;9.43;;;5.18;;
52057;SDS011;38063;53.210;6.504;2022-12-05T14:34:27;10.82;;;4.65;;
52057;SDS011;38063;53.210;6.504;2022-12-05T14:39:55;11.57;;;5.70;;
52057;SDS011;38063;53.210;6.504;2022-12-05T14:45:00;14.55;;;5.10;;
52057;SDS011;38063;53.210;6.504;2022-12-05T14:47:47;10.73;;;4.90;;
52057;SDS011;38063;53.210;6.504;2022-12-05T14:55:52;13.55;;;5.85;;
52057;SDS011;38063;53.210;6.504;2022-12-05T15:01:30;10.32;;;5.35;;
52057;SDS011;38063;53.210;6.504;2022-12-05T15:06:56;12.05;;;5.32;;
52057;SDS011;38063;53.210;6.504;2022-12-05T15:20:48;13.43;;;5.57;;
52057;SDS011;38063;53.210;6.504;2022-12-05T15:31:33;10.43;;;5.68;;
52057;SDS011;38063;53.210;6.504;2022-12-05T15:34:12;12.07;;;5.63;;
52057;SDS011;38063;53.210;6.504;2022-12-05T15:36:49;15.32;;;6.18;;
52057;SDS011;38063;53.210;6.504;2022-12-05T15:39:22;13.57;;;6.00;;
52057;SDS011;38063;53.210;6.504;2022-12-05T15:41:53;10.88;;;5.20;;
52057;SDS011;38063;53.210;6.504;2022-12-05T15:44:20;11.40;;;6.20;;
52057;SDS011;38063;53.210;6.504;2022-12-05T15:46:54;15.05;;;6.35;;
52057;SDS011;38063;53.210;6.504;2022-12-05T15:49:24;18.63;;;5.55;;
52057;SDS011;38063;53.210;6.504;2022-12-05T15:51:52;16.10;;;6.03;;
52057;SDS011;38063;53.210;6.504;2022-12-05T15:54:28;14.05;;;6.70;;
52057;SDS011;38063;53.210;6.504;2022-12-05T15:59:25;10.73;;;6.45;;
52057;SDS011;38063;53.210;6.504;2022-12-05T16:01:58;16.67;;;6.43;;
52057;SDS011;38063;53.210;6.504;2022-12-05T16:04:36;14.95;;;6.97;;
52057;SDS011;38063;53.210;6.504;2022-12-05T16:07:10;12.82;;;6.22;;
52057;SDS011;38063;53.210;6.504;2022-12-05T16:09:39;18.60;;;6.95;;
52057;SDS011;38063;53.210;6.504;2022-12-05T16:12:18;19.52;;;7.32;;
52057;SDS011;38063;53.210;6.504;2022-12-05T16:14:50;15.88;;;6.53;;
52057;SDS011;38063;53.210;6.504;2022-12-05T16:17:19;17.60;;;7.35;;
52057;SDS011;38063;53.210;6.504;2022-12-05T16:19:45;12.68;;;6.35;;
52057;SDS011;38063;53.210;6.504;2022-12-05T16:27:15;17.95;;;7.72;;
52057;SDS011;38063;53.210;6.504;2022-12-05T16:29:42;17.50;;;7.88;;
52057;SDS011;38063;53.210;6.504;2022-12-05T16:32:14;16.20;;;6.07;;
52057;SDS011;38063;53.210;6.504;2022-12-05T16:34:45;11.00;;;5.78;;
52057;SDS011;38063;53.210;6.504;2022-12-05T16:37:20;17.23;;;6.80;;
52057;SDS011;38063;53.210;6.504;2022-12-05T16:39:49;13.73;;;6.22;;
52057;SDS011;38063;53.210;6.504;2022-12-05T16:50:24;15.85;;;6.85;;
52057;SDS011;38063;53.210;6.504;2022-12-05T16:53:03;14.38;;;5.85;;
52057;SDS011;38063;53.210;6.504;2022-12-05T16:55:44;17.48;;;7.53;;
52057;SDS011;38063;53.210;6.504;2022-12-05T16:58:12;15.95;;;6.55;;
52057;SDS011;38063;53.210;6.504;2022-12-05T17:00:43;16.77;;;6.38;;
52057;SDS011;38063;53.210;6.504;2022-12-05T17:03:12;14.40;;;7.25;;
52057;SDS011;38063;53.210;6.504;2022-12-05T17:05:39;16.73;;;6.45;;
52057;SDS011;38063;53.210;6.504;2022-12-05T17:08:05;14.35;;;6.35;;
52057;SDS011;38063;53.210;6.504;2022-12-05T17:10:30;10.90;;;5.32;;
52057;SDS011;38063;53.210;6.504;2022-12-05T17:12:56;11.70;;;6.10;;
52057;SDS011;38063;53.210;6.504;2022-12-05T17:15:24;12.90;;;5.28;;
52057;SDS011;38063;53.210;6.504;2022-12-05T17:17:50;12.57;;;5.65;;
52057;SDS011;38063;53.210;6.504;2022-12-05T17:20:15;9.52;;;4.95;;
52057;SDS011;38063;53.210;6.504;2022-12-05T17:22:41;11.52;;;5.03;;
52057;SDS011;38063;53.210;6.504;2022-12-05T17:25:17;11.48;;;5.68;;
52057;SDS011;38063;53.210;6.504;2022-12-05T17:27:51;11.88;;;6.10;;
52057;SDS011;38063;53.210;6.504;2022-12-05T17:30:16;11.98;;;5.82;;
52057;SDS011;38063;53.210;6.504;2022-12-05T17:32:42;14.43;;;6.93;;
52057;SDS011;38063;53.210;6.504;2022-12-05T17:35:14;11.82;;;5.85;;
52057;SDS011;38063;53.210;6.504;2022-12-05T17:37:41;13.27;;;5.20;;
52057;SDS011;38063;53.210;6.504;2022-12-05T17:40:07;9.85;;;5.32;;
52057;SDS011;38063;53.210;6.504;2022-12-05T17:42:33;12.57;;;5.15;;
52057;SDS011;38063;53.210;6.504;2022-12-05T17:44:59;12.90;;;5.15;;
52057;SDS011;38063;53.210;6.504;2022-12-05T17:47:24;9.07;;;4.65;;
52057;SDS011;38063;53.210;6.504;2022-12-05T17:49:50;12.93;;;5.22;;
52057;SDS011;38063;53.210;6.504;2022-12-05T17:52:16;10.25;;;5.22;;
52057;SDS011;38063;53.210;6.504;2022-12-05T17:54:42;9.90;;;5.30;;
52057;SDS011;38063;53.210;6.504;2022-12-05T17:57:08;8.93;;;5.00;;
52057;SDS011;38063;53.210;6.504;2022-12-05T17:59:33;9.50;;;4.53;;
52057;SDS011;38063;53.210;6.504;2022-12-05T18:01:59;10.27;;;5.10;;
52057;SDS011;38063;53.210;6.504;2022-12-05T18:04:25;9.85;;;4.88;;
52057;SDS011;38063;53.210;6.504;2022-12-05T18:06:50;10.00;;;5.00;;
52057;SDS011;38063;53.210;6.504;2022-12-05T18:09:16;8.20;;;4.72;;
52057;SDS011;38063;53.210;6.504;2022-12-05T18:11:42;7.18;;;4.00;;
52057;SDS011;38063;53.210;6.504;2022-12-05T18:14:07;15.38;;;4.82;;
52057;SDS011;38063;53.210;6.504;2022-12-05T18:16:34;8.02;;;4.00;;
52057;SDS011;38063;53.210;6.504;2022-12-05T18:19:00;15.57;;;4.60;;
52057;SDS011;38063;53.210;6.504;2022-12-05T18:21:25;11.30;;;4.55;;